M I D A S
Marine Information and Data Acquisition System
Tripno 908 of the Zeeleeuw from 2005-06-02 09:22:34 to 2005-06-02 13:49:12
Back to CruiseResearch ActivitiesStationsMapUnderway DataData graphs

EquipmentUnitsComment
TimeDGPSUTC
LatitudeDGPSDM.mWGS84
LongitudeDGPSDM.mWGS84
HeadingGyrodeg 
SOGDGPSknotsSpeed over ground
COGDGPSdegCourse over ground
DepthEcho soundermeters200 kHz
Missing or incorrect values are displayed as -999
Navigation data collected by the RV Zeeleeuw from 2005-06-02 06:40:46 to 2005-06-02 13:50:30
                                                                                    Next 1000 lines
Time Latitude Longitude Heading SOG COG Depth
2005-06-02 06:40:56 51°13.587 2°56.108 127.6 0.2 185 -999
2005-06-02 06:41:00 51°13.59 2°56.109 127.4 0.1 203 -999
2005-06-02 06:41:06 51°13.596 2°56.109 127.1 -999 318 -999
2005-06-02 06:41:11 51°13.596 2°56.109 126.9 -999 289 -999
2005-06-02 06:41:16 51°13.596 2°56.109 126.6 -999 355 -999
2005-06-02 06:41:20 51°13.597 2°56.109 126.3 -999 347 -999
2005-06-02 06:41:26 51°13.596 2°56.109 126.2 -999 83 -999
2005-06-02 06:41:31 51°13.596 2°56.109 126.1 -999 198 -999
2005-06-02 06:41:36 51°13.596 2°56.109 126.1 -999 249 -999
2005-06-02 06:41:40 51°13.596 2°56.109 126.1 -999 302 -999
2005-06-02 06:41:45 51°13.596 2°56.109 126.2 -999 335 -999
2005-06-02 06:41:51 51°13.597 2°56.109 126.2 -999 56 -999
2005-06-02 06:41:56 51°13.597 2°56.109 126.2 -999 56 -999
2005-06-02 06:42:00 51°13.597 2°56.109 126.3 -999 354 -999
2005-06-02 06:42:06 51°13.597 2°56.109 126.3 -999 297 -999
2005-06-02 06:42:11 51°13.597 2°56.109 126.3 -999 295 -999
2005-06-02 06:42:16 51°13.597 2°56.109 126.3 -999 300 -999
2005-06-02 06:42:20 51°13.597 2°56.109 126.3 -999 10 -999
2005-06-02 06:42:26 51°13.597 2°56.109 126.4 -999 351 -999
2005-06-02 06:42:31 51°13.597 2°56.108 126.4 -999 137 -999
2005-06-02 06:42:36 51°13.597 2°56.108 126.3 -999 333 -999
2005-06-02 06:42:40 51°13.597 2°56.108 126.2 -999 179 -999
2005-06-02 06:42:46 51°13.597 2°56.108 126.2 -999 358 -999
2005-06-02 06:42:51 51°13.597 2°56.108 126.2 -999 1 -999
2005-06-02 06:42:56 51°13.597 2°56.108 126.2 -999 4 -999
2005-06-02 06:43:01 51°13.597 2°56.109 126.2 -999 126 -999
2005-06-02 06:43:06 51°13.597 2°56.108 126.3 -999 140 -999
2005-06-02 06:43:11 51°13.597 2°56.108 126.4 -999 143 -999
2005-06-02 06:43:16 51°13.597 2°56.108 126.7 -999 149 -999
2005-06-02 06:43:20 51°13.597 2°56.108 126.7 -999 125 -999
2005-06-02 06:43:26 51°13.597 2°56.108 126.7 -999 175 -999
2005-06-02 06:43:31 51°13.598 2°56.108 126.7 -999 336 -999
2005-06-02 06:43:35 51°13.598 2°56.108 126.7 -999 66 -999
2005-06-02 06:43:40 51°13.598 2°56.108 126.7 -999 7 -999
2005-06-02 06:43:45 51°13.598 2°56.108 126.8 -999 301 -999
2005-06-02 06:43:51 51°13.598 2°56.108 126.8 -999 301 -999
2005-06-02 06:43:56 51°13.598 2°56.108 126.8 -999 107 -999
2005-06-02 06:44:00 51°13.598 2°56.108 126.7 -999 137 -999
2005-06-02 06:44:05 51°13.598 2°56.108 126.6 -999 29 -999
2005-06-02 06:44:11 51°13.599 2°56.108 126.4 -999 336 -999
2005-06-02 06:44:16 51°13.599 2°56.108 126.4 -999 134 -999
2005-06-02 06:44:20 51°13.599 2°56.108 126.5 -999 179 -999
2005-06-02 06:44:25 51°13.599 2°56.108 126.6 -999 197 -999
2005-06-02 06:44:31 51°13.599 2°56.108 126.7 -999 305 -999
2005-06-02 06:44:36 51°13.599 2°56.108 126.7 -999 30 -999
2005-06-02 06:44:40 51°13.599 2°56.108 126.7 -999 320 -999
2005-06-02 06:44:45 51°13.599 2°56.108 126.7 -999 222 -999
2005-06-02 06:44:51 51°13.599 2°56.108 126.7 -999 330 -999
2005-06-02 06:44:55 51°13.599 2°56.108 126.7 -999 234 -999
2005-06-02 06:45:00 51°13.599 2°56.108 126.7 -999 271 -999
2005-06-02 06:45:06 51°13.6 2°56.108 126.8 -999 315 -999
2005-06-02 06:45:11 51°13.6 2°56.108 126.8 -999 241 -999
2005-06-02 06:45:16 51°13.6 2°56.108 126.8 -999 236 -999
2005-06-02 06:45:20 51°13.599 2°56.108 126.8 -999 172 -999
2005-06-02 06:45:25 51°13.599 2°56.108 126.9 -999 162 -999
2005-06-02 06:45:31 51°13.599 2°56.108 126.9 -999 164 -999
2005-06-02 06:45:35 51°13.599 2°56.108 127 -999 192 -999
2005-06-02 06:45:40 51°13.599 2°56.108 127 -999 265 -999
2005-06-02 06:45:45 51°13.599 2°56.108 127.1 -999 170 -999
2005-06-02 06:45:51 51°13.599 2°56.108 127.2 -999 25 -999
2005-06-02 06:45:55 51°13.599 2°56.108 127.3 -999 214 -999
2005-06-02 06:46:00 51°13.599 2°56.108 127.3 -999 230 -999
2005-06-02 06:46:05 51°13.599 2°56.108 127.2 -999 348 -999
2005-06-02 06:46:11 51°13.599 2°56.108 127.1 -999 325 -999
2005-06-02 06:46:15 51°13.599 2°56.108 127 -999 330 -999
2005-06-02 06:46:20 51°13.599 2°56.108 126.6 -999 4 -999
2005-06-02 06:46:25 51°13.599 2°56.108 126.2 0.1 349 -999
2005-06-02 06:46:31 51°13.599 2°56.108 125.7 0.1 334 -999
2005-06-02 06:46:35 51°13.599 2°56.108 125.5 -999 265 -999
2005-06-02 06:46:40 51°13.599 2°56.108 125.3 -999 206 -999
2005-06-02 06:46:45 51°13.599 2°56.109 125.3 -999 41 -999
2005-06-02 06:46:50 51°13.599 2°56.109 125.3 -999 126 -999
2005-06-02 06:46:55 51°13.599 2°56.109 125.5 -999 178 -999
2005-06-02 06:47:00 51°13.599 2°56.109 125.7 0.1 141 -999
2005-06-02 06:47:05 51°13.599 2°56.109 126 0.1 166 -999
2005-06-02 06:47:10 51°13.599 2°56.109 126.3 0.1 162 -999
2005-06-02 06:47:15 51°13.599 2°56.109 126.8 -999 177 -999
2005-06-02 06:47:20 51°13.599 2°56.109 127.1 -999 206 -999
2005-06-02 06:47:25 51°13.599 2°56.109 127.4 -999 198 -999
2005-06-02 06:47:30 51°13.599 2°56.109 127.5 -999 155 -999
2005-06-02 06:47:35 51°13.599 2°56.109 127.5 -999 180 -999
2005-06-02 06:47:40 51°13.599 2°56.109 127.5 -999 117 -999
2005-06-02 06:47:45 51°13.599 2°56.109 127.5 -999 1 -999
2005-06-02 06:47:50 51°13.599 2°56.109 127.5 -999 250 -999
2005-06-02 06:47:55 51°13.599 2°56.109 127.6 -999 178 -999
2005-06-02 06:48:00 51°13.599 2°56.109 127.6 -999 201 -999
2005-06-02 06:48:05 51°13.599 2°56.109 127.7 -999 77 -999
2005-06-02 06:48:11 51°13.599 2°56.108 127.5 -999 46 -999
2005-06-02 06:48:15 51°13.599 2°56.108 127.5 -999 317 -999
2005-06-02 06:48:20 51°13.599 2°56.108 127.4 -999 341 -999
2005-06-02 06:48:25 51°13.599 2°56.109 127.4 -999 177 -999
2005-06-02 06:48:31 51°13.599 2°56.108 127.5 -999 169 -999
2005-06-02 06:48:35 51°13.599 2°56.108 127.5 -999 62 -999
2005-06-02 06:48:40 51°13.599 2°56.108 127.5 -999 17 -999
2005-06-02 06:48:45 51°13.599 2°56.108 127.5 -999 17 -999
2005-06-02 06:48:51 51°13.599 2°56.108 127.5 -999 310 -999
2005-06-02 06:48:55 51°13.599 2°56.108 127.5 -999 198 -999
2005-06-02 06:49:00 51°13.599 2°56.108 127.5 -999 182 -999
2005-06-02 06:49:05 51°13.599 2°56.108 127.5 -999 183 -999
2005-06-02 06:49:11 51°13.599 2°56.108 127.5 -999 151 -999
2005-06-02 06:49:15 51°13.599 2°56.108 127.5 -999 170 -999
2005-06-02 06:49:20 51°13.599 2°56.108 127.5 -999 155 -999
2005-06-02 06:49:25 51°13.599 2°56.108 127.5 -999 291 -999
2005-06-02 06:49:30 51°13.599 2°56.108 127.5 -999 147 -999
2005-06-02 06:49:35 51°13.599 2°56.108 127.5 -999 107 -999
2005-06-02 06:49:40 51°13.599 2°56.108 127.3 -999 76 -999
2005-06-02 06:49:45 51°13.599 2°56.108 127.1 -999 303 -999
2005-06-02 06:49:50 51°13.599 2°56.108 126.9 -999 339 -999
2005-06-02 06:49:55 51°13.599 2°56.108 126.4 -999 12 -999
2005-06-02 06:50:00 51°13.599 2°56.108 126.2 -999 358 -999
2005-06-02 06:50:05 51°13.599 2°56.108 125.8 -999 306 -999
2005-06-02 06:50:10 51°13.599 2°56.108 125.6 -999 243 -999
2005-06-02 06:50:15 51°13.599 2°56.108 125.6 -999 193 -999
2005-06-02 06:50:20 51°13.599 2°56.108 125.6 -999 280 -999
2005-06-02 06:50:25 51°13.599 2°56.108 125.6 -999 1 -999
2005-06-02 06:50:31 51°13.599 2°56.108 125.6 -999 3 -999
2005-06-02 06:50:35 51°13.599 2°56.108 125.6 -999 357 -999
2005-06-02 06:50:40 51°13.599 2°56.108 125.6 -999 238 -999
2005-06-02 06:50:45 51°13.599 2°56.108 125.6 -999 21 -999
2005-06-02 06:50:51 51°13.599 2°56.108 125.6 -999 119 -999
2005-06-02 06:50:55 51°13.599 2°56.108 125.6 -999 219 -999
2005-06-02 06:51:00 51°13.599 2°56.108 125.6 -999 108 -999
2005-06-02 06:51:05 51°13.598 2°56.108 125.7 -999 257 -999
2005-06-02 06:51:11 51°13.598 2°56.108 125.7 -999 315 -999
2005-06-02 06:51:15 51°13.598 2°56.108 125.7 -999 267 -999
2005-06-02 06:51:20 51°13.598 2°56.108 125.7 -999 327 -999
2005-06-02 06:51:25 51°13.598 2°56.108 125.7 -999 294 -999
2005-06-02 06:51:30 51°13.598 2°56.108 125.7 -999 267 -999
2005-06-02 06:51:35 51°13.599 2°56.108 125.7 -999 301 -999
2005-06-02 06:51:40 51°13.599 2°56.108 125.7 -999 244 -999
2005-06-02 06:51:46 51°13.598 2°56.108 125.7 -999 48 -999
2005-06-02 06:51:50 51°13.598 2°56.108 125.7 -999 164 -999
2005-06-02 06:51:56 51°13.598 2°56.108 125.7 -999 164 -999
2005-06-02 06:52:01 51°13.598 2°56.108 125.9 -999 160 -999
2005-06-02 06:52:06 51°13.598 2°56.108 126.1 -999 164 -999
2005-06-02 06:52:10 51°13.598 2°56.108 126.4 -999 168 -999
2005-06-02 06:52:15 51°13.598 2°56.108 126.7 -999 168 -999
2005-06-02 06:52:21 51°13.598 2°56.108 127.1 0.1 180 -999
2005-06-02 06:52:26 51°13.598 2°56.108 127.4 0.1 182 -999
2005-06-02 06:52:30 51°13.598 2°56.108 127.7 -999 191 -999
2005-06-02 06:52:35 51°13.598 2°56.108 127.8 -999 191 -999
2005-06-02 06:52:41 51°13.598 2°56.108 127.8 -999 168 -999
2005-06-02 06:52:46 51°13.598 2°56.108 127.8 -999 278 -999
2005-06-02 06:52:51 51°13.599 2°56.108 127.8 -999 349 -999
2005-06-02 06:52:56 51°13.599 2°56.108 127.6 -999 349 -999
2005-06-02 06:53:01 51°13.599 2°56.108 127.4 -999 340 -999
2005-06-02 06:53:05 51°13.599 2°56.108 127.2 -999 336 -999
2005-06-02 06:53:11 51°13.599 2°56.108 127 -999 236 -999
2005-06-02 06:53:16 51°13.599 2°56.108 126.8 -999 347 -999
2005-06-02 06:53:21 51°13.599 2°56.108 126.6 -999 299 -999
2005-06-02 06:53:25 51°13.599 2°56.108 126.5 -999 314 -999
2005-06-02 06:53:30 51°13.599 2°56.108 126.4 -999 352 -999
2005-06-02 06:53:36 51°13.599 2°56.108 126.3 -999 237 -999
2005-06-02 06:53:41 51°13.599 2°56.108 126.3 -999 215 -999
2005-06-02 06:53:45 51°13.599 2°56.108 126.3 -999 225 -999
2005-06-02 06:53:50 51°13.599 2°56.108 126.3 -999 266 -999
2005-06-02 06:53:56 51°13.599 2°56.108 126.4 -999 273 -999
2005-06-02 06:54:01 51°13.599 2°56.108 126.5 -999 87 -999
2005-06-02 06:54:05 51°13.599 2°56.108 126.7 -999 119 -999
2005-06-02 06:54:10 51°13.599 2°56.108 126.7 -999 335 -999
2005-06-02 06:54:15 51°13.599 2°56.108 126.7 -999 342 -999
2005-06-02 06:54:21 51°13.599 2°56.108 126.7 -999 43 -999
2005-06-02 06:54:25 51°13.599 2°56.108 126.7 -999 237 -999
2005-06-02 06:54:30 51°13.599 2°56.108 126.7 -999 270 -999
2005-06-02 06:54:36 51°13.599 2°56.108 126.8 -999 212 -999
2005-06-02 06:54:41 51°13.599 2°56.108 127 -999 139 -999
2005-06-02 06:54:45 51°13.599 2°56.108 127 -999 162 -999
2005-06-02 06:54:50 51°13.599 2°56.108 127.1 -999 166 -999
2005-06-02 06:54:56 51°13.599 2°56.108 127.3 -999 69 -999
2005-06-02 06:55:00 51°13.599 2°56.108 127.4 -999 252 -999
2005-06-02 06:55:05 51°13.599 2°56.108 127.4 -999 215 -999
2005-06-02 06:55:10 51°13.599 2°56.108 127.4 -999 135 -999
2005-06-02 06:55:16 51°13.599 2°56.108 127.4 -999 350 -999
2005-06-02 06:55:20 51°13.599 2°56.108 127.1 0.1 348 -999
2005-06-02 06:55:25 51°13.599 2°56.108 126.9 0.1 332 -999
2005-06-02 06:55:30 51°13.599 2°56.108 126.6 -999 318 -999
2005-06-02 06:55:36 51°13.599 2°56.108 126.4 -999 17 -999
2005-06-02 06:55:40 51°13.599 2°56.108 126.2 -999 263 -999
2005-06-02 06:55:45 51°13.599 2°56.108 126.2 -999 9 -999
2005-06-02 06:55:50 51°13.599 2°56.108 126.2 -999 60 -999
2005-06-02 06:55:55 51°13.599 2°56.108 126.2 -999 81 -999
2005-06-02 06:56:01 51°13.599 2°56.108 126.2 -999 81 -999
2005-06-02 06:56:06 51°13.599 2°56.108 126.2 -999 172 -999
2005-06-02 06:56:10 51°13.599 2°56.108 126.3 -999 191 -999
2005-06-02 06:56:16 51°13.599 2°56.108 126.6 0.1 168 -999
2005-06-02 06:56:21 51°13.599 2°56.108 126.8 -999 87 -999
2005-06-02 06:56:26 51°13.599 2°56.108 127 -999 154 -999
2005-06-02 06:56:30 51°13.599 2°56.108 127.1 -999 183 -999
2005-06-02 06:56:36 51°13.599 2°56.108 127.3 -999 202 -999
2005-06-02 06:56:41 51°13.599 2°56.108 127.4 -999 203 -999
2005-06-02 06:56:46 51°13.599 2°56.108 127.4 -999 346 -999
2005-06-02 06:56:50 51°13.599 2°56.108 127.4 -999 44 -999
2005-06-02 06:56:56 51°13.599 2°56.108 127.4 -999 7 -999
2005-06-02 06:57:01 51°13.599 2°56.108 127.4 -999 72 -999
2005-06-02 06:57:06 51°13.599 2°56.108 127.4 -999 203 -999
2005-06-02 06:57:10 51°13.599 2°56.108 127.4 -999 21 -999
2005-06-02 06:57:16 51°13.599 2°56.108 127.4 -999 37 -999
2005-06-02 06:57:21 51°13.599 2°56.108 127.4 -999 346 -999
2005-06-02 06:57:26 51°13.599 2°56.108 127.4 -999 211 -999
2005-06-02 06:57:30 51°13.599 2°56.108 127.4 0.1 175 -999
2005-06-02 06:57:36 51°13.599 2°56.108 127.4 -999 166 -999
2005-06-02 06:57:40 51°13.599 2°56.108 127.4 -999 356 -999
2005-06-02 06:57:46 51°13.599 2°56.107 127.3 -999 297 -999
2005-06-02 06:57:50 51°13.599 2°56.107 127.1 -999 347 -999
2005-06-02 06:57:56 51°13.599 2°56.108 127 -999 359 -999
2005-06-02 06:58:01 51°13.599 2°56.108 126.9 -999 359 -999
2005-06-02 06:58:06 51°13.599 2°56.107 126.8 -999 284 -999
2005-06-02 06:58:10 51°13.599 2°56.107 126.8 -999 247 -999
2005-06-02 06:58:16 51°13.599 2°56.107 126.8 -999 195 -999
2005-06-02 06:58:21 51°13.599 2°56.108 126.7 -999 324 -999
2005-06-02 06:58:26 51°13.599 2°56.108 126.6 -999 10 -999
2005-06-02 06:58:30 51°13.599 2°56.108 126.6 -999 327 -999
2005-06-02 06:58:36 51°13.599 2°56.108 126.6 -999 196 -999
2005-06-02 06:58:41 51°13.599 2°56.108 126.6 -999 196 -999
2005-06-02 06:58:46 51°13.599 2°56.108 126.6 -999 161 -999
2005-06-02 06:58:50 51°13.599 2°56.108 126.7 -999 142 -999
2005-06-02 06:58:55 51°13.599 2°56.108 126.7 -999 157 -999
2005-06-02 06:59:01 51°13.599 2°56.108 126.7 -999 157 -999
2005-06-02 06:59:06 51°13.599 2°56.108 126.7 0.1 358 -999
2005-06-02 06:59:10 51°13.598 2°56.108 126.7 -999 326 -999
2005-06-02 06:59:16 51°13.598 2°56.108 126.7 -999 189 -999
2005-06-02 06:59:21 51°13.598 2°56.108 126.7 -999 192 -999
2005-06-02 06:59:26 51°13.598 2°56.108 126.8 -999 358 -999
2005-06-02 06:59:31 51°13.599 2°56.108 126.8 -999 347 -999
2005-06-02 06:59:36 51°13.598 2°56.108 126.8 -999 4 -999
2005-06-02 06:59:41 51°13.598 2°56.108 126.8 -999 4 -999
2005-06-02 06:59:46 51°13.598 2°56.108 126.8 -999 334 -999
2005-06-02 06:59:50 51°13.598 2°56.108 126.8 -999 301 -999
2005-06-02 06:59:55 51°13.598 2°56.108 126.8 -999 190 -999
2005-06-02 07:00:00 51°13.598 2°56.108 126.7 -999 132 -999
2005-06-02 07:00:05 51°13.598 2°56.108 126.7 -999 183 -999
2005-06-02 07:00:10 51°13.598 2°56.108 126.6 0.1 201 -999
2005-06-02 07:00:15 51°13.598 2°56.108 126.6 0.1 201 -999
2005-06-02 07:00:21 51°13.598 2°56.108 126.6 -999 24 -999
2005-06-02 07:00:25 51°13.598 2°56.108 126.6 -999 333 -999
2005-06-02 07:00:30 51°13.598 2°56.108 126.6 -999 19 -999
2005-06-02 07:00:35 51°13.598 2°56.108 126.5 -999 25 -999
2005-06-02 07:00:41 51°13.598 2°56.108 126.5 -999 20 -999
2005-06-02 07:00:45 51°13.598 2°56.108 126.4 0.1 212 -999
2005-06-02 07:00:50 51°13.598 2°56.108 126.4 -999 330 -999
2005-06-02 07:00:55 51°13.598 2°56.108 126.4 -999 356 -999
2005-06-02 07:01:00 51°13.598 2°56.108 126.4 -999 51 -999
2005-06-02 07:01:05 51°13.598 2°56.108 126.4 -999 51 -999
2005-06-02 07:01:10 51°13.598 2°56.108 126.6 -999 57 -999
2005-06-02 07:01:15 51°13.598 2°56.108 126.7 -999 135 -999
2005-06-02 07:01:21 51°13.598 2°56.108 126.9 -999 253 -999
2005-06-02 07:01:25 51°13.598 2°56.108 127 -999 191 -999
2005-06-02 07:01:30 51°13.598 2°56.108 127.1 -999 268 -999
2005-06-02 07:01:35 51°13.598 2°56.108 127.2 -999 254 -999
2005-06-02 07:01:41 51°13.598 2°56.108 127.2 -999 260 -999
2005-06-02 07:01:45 51°13.598 2°56.108 127.2 -999 81 -999
2005-06-02 07:01:50 51°13.598 2°56.108 127.2 -999 320 -999
2005-06-02 07:01:55 51°13.598 2°56.108 127.2 -999 279 -999
2005-06-02 07:02:00 51°13.598 2°56.108 127.2 -999 315 -999
2005-06-02 07:02:05 51°13.598 2°56.108 127.2 -999 315 -999
2005-06-02 07:02:10 51°13.598 2°56.108 127.2 -999 359 -999
2005-06-02 07:02:15 51°13.598 2°56.108 127.2 -999 64 -999
2005-06-02 07:02:20 51°13.598 2°56.108 127.3 -999 178 -999
2005-06-02 07:02:25 51°13.598 2°56.108 127.3 -999 169 -999
2005-06-02 07:02:30 51°13.598 2°56.108 127.2 -999 8 -999
2005-06-02 07:02:35 51°13.598 2°56.108 127.1 0.1 12 -999
2005-06-02 07:02:40 51°13.598 2°56.108 127 0.1 358 -999
2005-06-02 07:02:45 51°13.598 2°56.108 127 0.1 353 -999
2005-06-02 07:02:50 51°13.598 2°56.108 126.9 -999 3 -999
2005-06-02 07:02:55 51°13.598 2°56.108 126.8 -999 7 -999
2005-06-02 07:03:00 51°13.598 2°56.108 126.8 -999 156 -999
2005-06-02 07:03:05 51°13.598 2°56.108 126.8 -999 200 -999
2005-06-02 07:03:10 51°13.598 2°56.108 126.8 -999 182 -999
2005-06-02 07:03:15 51°13.598 2°56.108 126.8 -999 173 -999
2005-06-02 07:03:21 51°13.598 2°56.108 126.8 -999 196 -999
2005-06-02 07:03:25 51°13.598 2°56.108 126.7 -999 225 -999
2005-06-02 07:03:30 51°13.598 2°56.108 126.7 -999 232 -999
2005-06-02 07:03:35 51°13.598 2°56.108 126.7 -999 242 -999
2005-06-02 07:03:41 51°13.598 2°56.108 126.7 -999 162 -999
2005-06-02 07:03:45 51°13.598 2°56.108 126.8 -999 148 -999
2005-06-02 07:03:50 51°13.598 2°56.108 126.8 -999 334 -999
2005-06-02 07:03:55 51°13.598 2°56.108 126.8 -999 173 -999
2005-06-02 07:04:00 51°13.598 2°56.108 126.7 -999 240 -999
2005-06-02 07:04:05 51°13.598 2°56.108 126.7 -999 79 -999
2005-06-02 07:04:11 51°13.598 2°56.108 126.7 -999 194 -999
2005-06-02 07:04:15 51°13.598 2°56.108 126.7 -999 159 -999
2005-06-02 07:04:21 51°13.598 2°56.108 126.7 -999 132 -999
2005-06-02 07:04:26 51°13.599 2°56.108 126.6 -999 316 -999
2005-06-02 07:04:31 51°13.599 2°56.108 126.6 -999 356 -999
2005-06-02 07:04:35 51°13.599 2°56.108 126.6 -999 271 -999
2005-06-02 07:04:41 51°13.599 2°56.108 126.6 -999 178 -999
2005-06-02 07:04:46 51°13.599 2°56.108 126.6 -999 173 -999
2005-06-02 07:04:51 51°13.599 2°56.108 126.6 -999 199 -999
2005-06-02 07:04:56 51°13.599 2°56.108 126.7 -999 199 -999
2005-06-02 07:05:01 51°13.599 2°56.108 126.8 -999 9 -999
2005-06-02 07:05:06 51°13.599 2°56.108 127 -999 74 -999
2005-06-02 07:05:11 51°13.599 2°56.108 127 -999 166 -999
2005-06-02 07:05:16 51°13.599 2°56.108 127 -999 89 -999
2005-06-02 07:05:21 51°13.599 2°56.108 127 -999 92 -999
2005-06-02 07:05:26 51°13.599 2°56.108 127 -999 26 -999
2005-06-02 07:05:31 51°13.599 2°56.108 127 -999 292 -999
2005-06-02 07:05:36 51°13.599 2°56.108 127 -999 259 -999
2005-06-02 07:05:41 51°13.599 2°56.108 127 -999 50 -999
2005-06-02 07:05:46 51°13.599 2°56.108 127 -999 149 -999
2005-06-02 07:05:51 51°13.599 2°56.108 127 -999 54 -999
2005-06-02 07:05:55 51°13.599 2°56.108 127 -999 227 -999
2005-06-02 07:06:01 51°13.599 2°56.108 127 -999 271 -999
2005-06-02 07:06:06 51°13.599 2°56.109 127 -999 27 -999
2005-06-02 07:06:11 51°13.6 2°56.108 127 -999 22 -999
2005-06-02 07:06:15 51°13.599 2°56.108 127 -999 299 -999
2005-06-02 07:06:21 51°13.6 2°56.108 126.9 -999 245 -999
2005-06-02 07:06:26 51°13.6 2°56.108 126.9 -999 239 -999
2005-06-02 07:06:31 51°13.6 2°56.109 126.9 -999 23 -999
2005-06-02 07:06:35 51°13.6 2°56.109 126.9 -999 62 -999
2005-06-02 07:06:41 51°13.6 2°56.108 126.8 0.1 36 -999
2005-06-02 07:06:46 51°13.6 2°56.109 126.7 -999 191 -999
2005-06-02 07:06:51 51°13.6 2°56.108 126.7 -999 72 -999
2005-06-02 07:06:55 51°13.6 2°56.108 126.7 -999 248 -999
2005-06-02 07:07:01 51°13.6 2°56.108 126.7 -999 103 -999
2005-06-02 07:07:06 51°13.6 2°56.108 126.7 -999 63 -999
2005-06-02 07:07:11 51°13.6 2°56.108 126.7 -999 198 -999
2005-06-02 07:07:16 51°13.6 2°56.108 126.8 -999 251 -999
2005-06-02 07:07:21 51°13.6 2°56.108 126.8 -999 73 -999
2005-06-02 07:07:25 51°13.6 2°56.108 126.8 -999 45 -999
2005-06-02 07:07:31 51°13.6 2°56.108 126.8 -999 217 -999
2005-06-02 07:07:36 51°13.6 2°56.108 126.9 -999 193 -999
2005-06-02 07:07:41 51°13.6 2°56.108 126.9 -999 91 -999
2005-06-02 07:07:46 51°13.6 2°56.108 127 -999 52 -999
2005-06-02 07:07:51 51°13.6 2°56.108 127 -999 245 -999
2005-06-02 07:07:56 51°13.6 2°56.108 127 -999 246 -999
2005-06-02 07:08:01 51°13.6 2°56.108 127 -999 44 -999
2005-06-02 07:08:06 51°13.6 2°56.108 127 -999 246 -999
2005-06-02 07:08:11 51°13.6 2°56.108 127 -999 238 -999
2005-06-02 07:08:15 51°13.6 2°56.108 127 -999 359 -999
2005-06-02 07:08:21 51°13.6 2°56.108 126.9 -999 43 -999
2005-06-02 07:08:26 51°13.6 2°56.108 126.9 -999 4 -999
2005-06-02 07:08:31 51°13.6 2°56.109 126.9 -999 81 -999
2005-06-02 07:08:35 51°13.6 2°56.109 126.9 -999 129 -999
2005-06-02 07:08:41 51°13.6 2°56.109 126.9 -999 55 -999
2005-06-02 07:08:46 51°13.6 2°56.109 126.9 -999 40 -999
2005-06-02 07:08:51 51°13.6 2°56.109 126.9 -999 56 -999
2005-06-02 07:08:55 51°13.6 2°56.109 126.9 -999 68 -999
2005-06-02 07:09:00 51°13.6 2°56.109 126.9 -999 49 -999
2005-06-02 07:09:06 51°13.6 2°56.109 126.9 -999 3 -999
2005-06-02 07:09:11 51°13.6 2°56.109 126.9 -999 291 -999
2005-06-02 07:09:15 51°13.6 2°56.109 126.9 -999 216 -999
2005-06-02 07:09:21 51°13.599 2°56.109 127 -999 201 -999
2005-06-02 07:09:25 51°13.599 2°56.109 127 -999 176 -999
2005-06-02 07:09:31 51°13.599 2°56.109 127 -999 190 -999
2005-06-02 07:09:35 51°13.599 2°56.109 127.1 -999 200 -999
2005-06-02 07:09:41 51°13.599 2°56.109 127.3 -999 210 -999
2005-06-02 07:09:45 51°13.599 2°56.109 127.5 -999 94 -999
2005-06-02 07:09:50 51°13.599 2°56.109 127.5 -999 83 -999
2005-06-02 07:09:55 51°13.599 2°56.109 127.5 -999 82 -999
2005-06-02 07:10:01 51°13.599 2°56.109 127.5 -999 303 -999
2005-06-02 07:10:05 51°13.599 2°56.109 127.6 -999 288 -999
2005-06-02 07:10:11 51°13.599 2°56.108 127.6 -999 210 -999
2005-06-02 07:10:15 51°13.599 2°56.109 127.6 0.1 167 -999
2005-06-02 07:10:21 51°13.599 2°56.109 127.6 -999 136 -999
2005-06-02 07:10:26 51°13.599 2°56.108 127.5 -999 136 -999
2005-06-02 07:10:31 51°13.599 2°56.109 127.5 0.1 1 -999
2005-06-02 07:10:35 51°13.599 2°56.109 127.5 -999 5 -999
2005-06-02 07:10:41 51°13.599 2°56.109 127.5 -999 10 -999
2005-06-02 07:10:46 51°13.599 2°56.109 127.5 -999 10 -999
2005-06-02 07:10:51 51°13.599 2°56.109 127.5 -999 198 -999
2005-06-02 07:10:55 51°13.599 2°56.109 127.5 0.1 207 -999
2005-06-02 07:11:00 51°13.599 2°56.109 127.7 -999 252 -999
2005-06-02 07:11:06 51°13.599 2°56.109 127.7 -999 252 -999
2005-06-02 07:11:11 51°13.599 2°56.109 127.7 -999 41 -999
2005-06-02 07:11:15 51°13.599 2°56.109 127.7 -999 264 -999
2005-06-02 07:11:21 51°13.599 2°56.109 127.7 -999 293 -999
2005-06-02 07:11:26 51°13.599 2°56.108 127.7 -999 223 -999
2005-06-02 07:11:31 51°13.599 2°56.108 127.7 -999 42 -999
2005-06-02 07:11:36 51°13.599 2°56.108 127.6 -999 16 -999
2005-06-02 07:11:41 51°13.599 2°56.108 127.5 -999 13 -999
2005-06-02 07:11:46 51°13.599 2°56.109 127.4 -999 11 -999
2005-06-02 07:11:51 51°13.599 2°56.109 127.4 -999 244 -999
2005-06-02 07:11:55 51°13.599 2°56.109 127.3 -999 170 -999
2005-06-02 07:12:01 51°13.599 2°56.109 127.3 -999 176 -999
2005-06-02 07:12:06 51°13.599 2°56.109 127.3 -999 187 -999
2005-06-02 07:12:11 51°13.599 2°56.109 127.3 -999 210 -999
2005-06-02 07:12:15 51°13.599 2°56.109 127.3 0.1 190 -999
2005-06-02 07:12:21 51°13.599 2°56.109 127.2 0.1 47 -999
2005-06-02 07:12:26 51°13.599 2°56.109 127.2 0.1 23 -999
2005-06-02 07:12:31 51°13.599 2°56.109 127.2 -999 12 -999
2005-06-02 07:12:36 51°13.599 2°56.109 127.1 -999 358 -999
2005-06-02 07:12:41 51°13.599 2°56.109 127.1 -999 13 -999
2005-06-02 07:12:46 51°13.599 2°56.108 127.1 0.1 211 -999
2005-06-02 07:12:51 51°13.599 2°56.108 127.1 0.1 183 -999
2005-06-02 07:12:56 51°13.599 2°56.108 127.1 0.1 186 -999
2005-06-02 07:13:01 51°13.599 2°56.108 127.1 0.1 193 -999
2005-06-02 07:13:06 51°13.599 2°56.108 127.1 0.1 194 -999
2005-06-02 07:13:11 51°13.599 2°56.108 127.1 0.1 191 -999
2005-06-02 07:13:16 51°13.599 2°56.108 127.1 -999 8 -999
2005-06-02 07:13:21 51°13.599 2°56.108 127.1 -999 345 -999
2005-06-02 07:13:26 51°13.599 2°56.108 127.1 -999 202 -999
2005-06-02 07:13:31 51°13.599 2°56.108 127 -999 259 -999
2005-06-02 07:13:36 51°13.599 2°56.108 127 -999 4 -999
2005-06-02 07:13:41 51°13.599 2°56.108 127 -999 344 -999
2005-06-02 07:13:46 51°13.599 2°56.108 127 -999 188 -999
2005-06-02 07:13:51 51°13.599 2°56.108 127 -999 178 -999
2005-06-02 07:13:56 51°13.599 2°56.108 127 -999 71 -999
2005-06-02 07:14:01 51°13.599 2°56.108 127 -999 180 -999
2005-06-02 07:14:06 51°13.599 2°56.108 127 -999 203 -999
2005-06-02 07:14:11 51°13.598 2°56.108 127.1 0.1 192 -999
2005-06-02 07:14:16 51°13.598 2°56.108 127.2 0.1 181 -999
2005-06-02 07:14:21 51°13.599 2°56.108 127.3 -999 153 -999
2005-06-02 07:14:26 51°13.599 2°56.108 127.3 -999 226 -999
2005-06-02 07:14:31 51°13.599 2°56.108 127.3 -999 226 -999
2005-06-02 07:14:36 51°13.599 2°56.108 127.4 -999 195 -999
2005-06-02 07:14:40 51°13.599 2°56.108 127.5 -999 183 -999
2005-06-02 07:14:45 51°13.599 2°56.108 127.6 -999 20 -999
2005-06-02 07:14:50 51°13.599 2°56.107 127.6 -999 200 -999
2005-06-02 07:14:56 51°13.599 2°56.107 127.6 -999 185 -999
2005-06-02 07:15:00 51°13.599 2°56.107 127.7 -999 353 -999
2005-06-02 07:15:06 51°13.599 2°56.107 127.7 -999 241 -999
2005-06-02 07:15:11 51°13.599 2°56.107 127.7 -999 185 -999
2005-06-02 07:15:16 51°13.599 2°56.107 127.6 -999 173 -999
2005-06-02 07:15:20 51°13.599 2°56.107 127.5 -999 355 -999
2005-06-02 07:15:25 51°13.599 2°56.107 127.5 -999 287 -999
2005-06-02 07:15:31 51°13.599 2°56.107 127.4 -999 221 -999
2005-06-02 07:15:36 51°13.599 2°56.107 127.4 0.1 200 -999
2005-06-02 07:15:40 51°13.599 2°56.107 127.4 -999 198 -999
2005-06-02 07:15:46 51°13.599 2°56.108 127.4 -999 174 -999
2005-06-02 07:15:50 51°13.599 2°56.108 127.4 -999 65 -999
2005-06-02 07:15:55 51°13.599 2°56.108 127.4 -999 236 -999
2005-06-02 07:16:00 51°13.599 2°56.108 127.5 -999 236 -999
2005-06-02 07:16:05 51°13.599 2°56.108 127.5 -999 104 -999
2005-06-02 07:16:11 51°13.599 2°56.108 127.5 -999 94 -999
2005-06-02 07:16:16 51°13.599 2°56.108 127.5 -999 103 -999
2005-06-02 07:16:20 51°13.599 2°56.108 127.6 -999 54 -999
2005-06-02 07:16:25 51°13.599 2°56.108 127.6 -999 259 -999
2005-06-02 07:16:31 51°13.599 2°56.107 127.6 0.1 258 -999
2005-06-02 07:16:36 51°13.599 2°56.107 127.7 0.1 249 -999
2005-06-02 07:16:40 51°13.599 2°56.108 127.7 -999 233 -999
2005-06-02 07:16:46 51°13.599 2°56.108 127.6 -999 -999 -999
2005-06-02 07:16:51 51°13.599 2°56.108 127.6 -999 287 -999
2005-06-02 07:16:56 51°13.599 2°56.107 127.6 -999 245 -999
2005-06-02 07:17:01 51°13.599 2°56.108 127.6 -999 220 -999
2005-06-02 07:17:06 51°13.599 2°56.108 127.6 -999 119 -999
2005-06-02 07:17:11 51°13.599 2°56.108 127.6 -999 107 -999
2005-06-02 07:17:16 51°13.599 2°56.108 127.6 -999 84 -999
2005-06-02 07:17:21 51°13.599 2°56.107 127.6 -999 111 -999
2005-06-02 07:17:26 51°13.599 2°56.107 127.7 -999 98 -999
2005-06-02 07:17:31 51°13.599 2°56.107 127.7 -999 98 -999
2005-06-02 07:17:36 51°13.599 2°56.107 127.7 -999 45 -999
2005-06-02 07:17:40 51°13.599 2°56.107 127.7 -999 32 -999
2005-06-02 07:17:46 51°13.599 2°56.107 127.7 -999 286 -999
2005-06-02 07:17:51 51°13.599 2°56.107 127.7 -999 286 -999
2005-06-02 07:17:56 51°13.599 2°56.107 127.7 -999 234 -999
2005-06-02 07:18:00 51°13.599 2°56.107 127.7 -999 184 -999
2005-06-02 07:18:06 51°13.599 2°56.107 127.7 -999 312 -999
2005-06-02 07:18:11 51°13.599 2°56.107 127.7 -999 235 -999
2005-06-02 07:18:16 51°13.599 2°56.107 127.7 -999 71 -999
2005-06-02 07:18:20 51°13.599 2°56.107 127.7 -999 64 -999
2005-06-02 07:18:25 51°13.599 2°56.107 127.7 -999 40 -999
2005-06-02 07:18:31 51°13.599 2°56.107 127.6 -999 40 -999
2005-06-02 07:18:36 51°13.599 2°56.107 127.5 -999 273 -999
2005-06-02 07:18:40 51°13.599 2°56.107 127.5 -999 75 -999
2005-06-02 07:18:45 51°13.599 2°56.107 127.5 -999 29 -999
2005-06-02 07:18:51 51°13.599 2°56.107 127.4 -999 276 -999
2005-06-02 07:18:56 51°13.599 2°56.107 127.3 -999 252 -999
2005-06-02 07:19:00 51°13.599 2°56.107 127.2 -999 48 -999
2005-06-02 07:19:05 51°13.599 2°56.107 127.1 -999 34 -999
2005-06-02 07:19:11 51°13.599 2°56.107 127.1 -999 269 -999
2005-06-02 07:19:15 51°13.599 2°56.107 127.1 -999 250 -999
2005-06-02 07:19:20 51°13.599 2°56.107 127.1 -999 231 -999
2005-06-02 07:19:25 51°13.599 2°56.107 127.1 -999 281 -999
2005-06-02 07:19:31 51°13.599 2°56.108 127.1 -999 123 -999
2005-06-02 07:19:36 51°13.599 2°56.108 127.1 -999 127 -999
2005-06-02 07:19:40 51°13.599 2°56.108 127.1 -999 127 -999
2005-06-02 07:19:46 51°13.599 2°56.108 127.1 -999 174 -999
2005-06-02 07:19:51 51°13.599 2°56.108 127.1 -999 106 -999
2005-06-02 07:19:56 51°13.599 2°56.108 127.1 -999 73 -999
2005-06-02 07:20:00 51°13.599 2°56.108 127.1 -999 323 -999
2005-06-02 07:20:06 51°13.599 2°56.108 127.1 -999 285 -999
2005-06-02 07:20:11 51°13.599 2°56.108 127.1 -999 278 -999
2005-06-02 07:20:16 51°13.599 2°56.108 127.1 -999 248 -999
2005-06-02 07:20:20 51°13.599 2°56.108 127.1 -999 272 -999
2005-06-02 07:20:26 51°13.599 2°56.108 127 -999 291 -999
2005-06-02 07:20:31 51°13.599 2°56.108 127 -999 291 -999
2005-06-02 07:20:36 51°13.599 2°56.108 127 -999 279 -999
2005-06-02 07:20:40 51°13.599 2°56.108 127 -999 145 -999
2005-06-02 07:20:45 51°13.599 2°56.108 127 -999 42 -999
2005-06-02 07:20:51 51°13.599 2°56.108 127 -999 32 -999
2005-06-02 07:20:56 51°13.599 2°56.108 127 -999 114 -999
2005-06-02 07:21:00 51°13.599 2°56.108 127 -999 42 -999
2005-06-02 07:21:05 51°13.599 2°56.108 127 -999 206 -999
2005-06-02 07:21:11 51°13.599 2°56.108 127.1 -999 172 -999
2005-06-02 07:21:16 51°13.599 2°56.108 127.1 -999 97 -999
2005-06-02 07:21:20 51°13.599 2°56.108 127.1 -999 77 -999
2005-06-02 07:21:26 51°13.599 2°56.108 127.1 -999 262 -999
2005-06-02 07:21:31 51°13.599 2°56.108 127.1 -999 231 -999
2005-06-02 07:21:35 51°13.599 2°56.108 127.1 -999 262 -999
2005-06-02 07:21:40 51°13.599 2°56.108 127.1 -999 237 -999
2005-06-02 07:21:46 51°13.599 2°56.109 127.3 -999 124 -999
2005-06-02 07:21:51 51°13.599 2°56.108 127.3 -999 225 -999
2005-06-02 07:21:55 51°13.599 2°56.108 127.3 -999 271 -999
2005-06-02 07:22:00 51°13.599 2°56.109 127.3 -999 39 -999
2005-06-02 07:22:06 51°13.599 2°56.109 127.3 -999 51 -999
2005-06-02 07:22:11 51°13.599 2°56.108 127.3 -999 320 -999
2005-06-02 07:22:15 51°13.599 2°56.108 127.3 -999 271 -999
2005-06-02 07:22:20 51°13.599 2°56.108 127.3 -999 257 -999
2005-06-02 07:22:25 51°13.599 2°56.109 127.3 -999 79 -999
2005-06-02 07:22:31 51°13.599 2°56.108 127.3 -999 74 -999
2005-06-02 07:22:35 51°13.599 2°56.108 127.3 -999 236 -999
2005-06-02 07:22:40 51°13.599 2°56.108 127.3 -999 262 -999
2005-06-02 07:22:45 51°13.599 2°56.108 127.3 -999 299 -999
2005-06-02 07:22:51 51°13.599 2°56.108 127.3 -999 278 -999
2005-06-02 07:22:55 51°13.599 2°56.108 127.2 -999 263 -999
2005-06-02 07:23:00 51°13.599 2°56.108 127.1 -999 267 -999
2005-06-02 07:23:05 51°13.599 2°56.108 127 -999 256 -999
2005-06-02 07:23:11 51°13.599 2°56.108 127 -999 305 -999
2005-06-02 07:23:16 51°13.599 2°56.108 127 -999 312 -999
2005-06-02 07:23:20 51°13.599 2°56.108 127 -999 93 -999
2005-06-02 07:23:25 51°13.599 2°56.108 127 -999 84 -999
2005-06-02 07:23:30 51°13.599 2°56.108 127 -999 74 -999
2005-06-02 07:23:36 51°13.599 2°56.108 127 -999 227 -999
2005-06-02 07:23:40 51°13.599 2°56.108 127 -999 235 -999
2005-06-02 07:23:45 51°13.599 2°56.108 127 -999 312 -999
2005-06-02 07:23:51 51°13.599 2°56.108 127 -999 224 -999
2005-06-02 07:23:55 51°13.599 2°56.108 127 -999 88 -999
2005-06-02 07:24:00 51°13.599 2°56.108 127 -999 183 -999
2005-06-02 07:24:05 51°13.599 2°56.108 127 -999 276 -999
2005-06-02 07:24:11 51°13.599 2°56.108 127.1 -999 254 -999
2005-06-02 07:24:15 51°13.599 2°56.108 127.1 -999 225 -999
2005-06-02 07:24:20 51°13.599 2°56.108 127.1 -999 70 -999
2005-06-02 07:24:25 51°13.599 2°56.108 127.1 -999 50 -999
2005-06-02 07:24:31 51°13.599 2°56.108 127.1 -999 208 -999
2005-06-02 07:24:35 51°13.599 2°56.108 127.1 -999 54 -999
2005-06-02 07:24:40 51°13.599 2°56.108 127.1 -999 267 -999
2005-06-02 07:24:45 51°13.599 2°56.108 127.1 -999 277 -999
2005-06-02 07:24:51 51°13.599 2°56.109 127.1 -999 228 -999
2005-06-02 07:24:55 51°13.599 2°56.109 127 -999 17 -999
2005-06-02 07:25:00 51°13.599 2°56.109 126.9 -999 288 -999
2005-06-02 07:25:05 51°13.599 2°56.109 126.8 -999 46 -999
2005-06-02 07:25:11 51°13.599 2°56.109 126.7 -999 105 -999
2005-06-02 07:25:15 51°13.599 2°56.109 126.7 -999 111 -999
2005-06-02 07:25:20 51°13.599 2°56.109 126.7 -999 25 -999
2005-06-02 07:25:25 51°13.599 2°56.109 126.7 -999 322 -999
2005-06-02 07:25:31 51°13.599 2°56.109 126.7 -999 287 -999
2005-06-02 07:25:35 51°13.599 2°56.109 126.7 -999 254 -999
2005-06-02 07:25:40 51°13.599 2°56.109 126.6 -999 49 -999
2005-06-02 07:25:45 51°13.599 2°56.109 126.3 -999 16 -999
2005-06-02 07:25:50 51°13.599 2°56.109 126.2 -999 204 -999
2005-06-02 07:25:56 51°13.599 2°56.109 126.2 -999 204 -999
2005-06-02 07:26:00 51°13.599 2°56.109 126.2 -999 193 -999
2005-06-02 07:26:05 51°13.599 2°56.109 126.3 -999 165 -999
2005-06-02 07:26:11 51°13.599 2°56.109 126.6 -999 175 -999
2005-06-02 07:26:15 51°13.599 2°56.109 126.9 -999 256 -999
2005-06-02 07:26:20 51°13.599 2°56.109 127 -999 139 -999
2005-06-02 07:26:25 51°13.599 2°56.109 127 -999 12 -999
2005-06-02 07:26:31 51°13.599 2°56.109 126.9 -999 47 -999
2005-06-02 07:26:35 51°13.599 2°56.109 126.8 -999 30 -999
2005-06-02 07:26:40 51°13.599 2°56.109 126.7 -999 4 -999
2005-06-02 07:26:46 51°13.599 2°56.109 126.7 -999 7 -999
2005-06-02 07:26:51 51°13.598 2°56.109 127 0.1 200 -999
2005-06-02 07:26:55 51°13.598 2°56.109 127.1 -999 185 -999
2005-06-02 07:27:00 51°13.598 2°56.109 127.4 -999 99 -999
2005-06-02 07:27:06 51°13.599 2°56.109 127.5 -999 213 -999
2005-06-02 07:27:11 51°13.598 2°56.109 127.6 -999 19 -999
2005-06-02 07:27:15 51°13.598 2°56.109 127.7 -999 205 -999
2005-06-02 07:27:20 51°13.598 2°56.109 127.7 -999 16 -999
2005-06-02 07:27:25 51°13.598 2°56.109 127.7 -999 296 -999
2005-06-02 07:27:31 51°13.598 2°56.109 127.7 -999 201 -999
2005-06-02 07:27:35 51°13.598 2°56.109 127.7 -999 353 -999
2005-06-02 07:27:40 51°13.598 2°56.109 127.6 -999 220 -999
2005-06-02 07:27:45 51°13.599 2°56.109 127.4 -999 201 -999
2005-06-02 07:27:51 51°13.599 2°56.109 127 0.1 15 -999
2005-06-02 07:27:56 51°13.599 2°56.108 126.8 -999 8 -999
2005-06-02 07:28:00 51°13.598 2°56.108 126.6 0.1 204 -999
2005-06-02 07:28:05 51°13.599 2°56.108 126.5 0.1 207 -999
2005-06-02 07:28:11 51°13.599 2°56.108 126.5 -999 16 -999
2005-06-02 07:28:16 51°13.599 2°56.108 126.6 0.1 191 -999
2005-06-02 07:28:20 51°13.598 2°56.108 126.6 -999 178 -999
2005-06-02 07:28:25 51°13.599 2°56.108 126.6 0.1 161 -999
2005-06-02 07:28:31 51°13.598 2°56.108 126.7 0.1 199 -999
2005-06-02 07:28:36 51°13.598 2°56.108 126.7 0.2 199 -999
2005-06-02 07:28:40 51°13.599 2°56.108 126.9 -999 134 -999
2005-06-02 07:28:45 51°13.598 2°56.108 126.9 -999 67 -999
2005-06-02 07:28:51 51°13.598 2°56.108 126.9 0.1 154 -999
2005-06-02 07:28:55 51°13.599 2°56.108 126.9 -999 216 -999
2005-06-02 07:29:00 51°13.598 2°56.108 127 -999 224 -999
2005-06-02 07:29:06 51°13.598 2°56.108 127.1 -999 193 -999
2005-06-02 07:29:11 51°13.599 2°56.108 127.3 0.1 23 -999
2005-06-02 07:29:15 51°13.599 2°56.108 127.3 0.1 11 -999
2005-06-02 07:29:20 51°13.599 2°56.108 127.2 -999 17 -999
2005-06-02 07:29:25 51°13.599 2°56.108 127.1 -999 32 -999
2005-06-02 07:29:31 51°13.598 2°56.108 127.1 0.1 224 -999
2005-06-02 07:29:35 51°13.598 2°56.108 127.3 0.1 217 -999
2005-06-02 07:29:40 51°13.598 2°56.108 127.4 -999 73 -999
2005-06-02 07:29:45 51°13.598 2°56.108 127.4 -999 359 -999
2005-06-02 07:29:51 51°13.599 2°56.108 127.4 -999 62 -999
2005-06-02 07:29:55 51°13.598 2°56.108 127.4 -999 10 -999
2005-06-02 07:30:00 51°13.598 2°56.108 127.4 0.1 205 -999
2005-06-02 07:30:05 51°13.598 2°56.108 127.3 -999 199 -999
2005-06-02 07:30:11 51°13.598 2°56.108 127.2 -999 117 -999
2005-06-02 07:30:16 51°13.599 2°56.108 127.2 -999 175 -999
2005-06-02 07:30:20 51°13.599 2°56.108 127.2 -999 325 -999
2005-06-02 07:30:25 51°13.598 2°56.108 127.2 -999 327 -999
2005-06-02 07:30:31 51°13.598 2°56.108 127.2 -999 173 -999
2005-06-02 07:30:36 51°13.598 2°56.108 127.2 0.1 174 -999
2005-06-02 07:30:40 51°13.599 2°56.108 127.2 0.1 359 -999
2005-06-02 07:30:45 51°13.598 2°56.108 127.2 0.1 14 -999
2005-06-02 07:30:51 51°13.598 2°56.108 127.3 -999 233 -999
2005-06-02 07:30:56 51°13.598 2°56.108 127.3 -999 208 -999
2005-06-02 07:31:00 51°13.598 2°56.108 127.3 -999 15 -999
2005-06-02 07:31:05 51°13.598 2°56.108 127.3 -999 286 -999
2005-06-02 07:31:11 51°13.598 2°56.108 127.3 -999 232 -999
2005-06-02 07:31:15 51°13.598 2°56.108 127.2 -999 283 -999
2005-06-02 07:31:21 51°13.598 2°56.108 127.1 0.1 348 -999
2005-06-02 07:31:25 51°13.598 2°56.108 127 0.1 2 -999
2005-06-02 07:31:31 51°13.598 2°56.108 126.8 -999 11 -999
2005-06-02 07:31:36 51°13.598 2°56.108 126.6 -999 225 -999
2005-06-02 07:31:40 51°13.598 2°56.108 126.6 0.1 199 -999
2005-06-02 07:31:45 51°13.598 2°56.108 126.8 -999 174 -999
2005-06-02 07:31:51 51°13.598 2°56.108 127 -999 104 -999
2005-06-02 07:31:56 51°13.598 2°56.108 127.1 -999 114 -999
2005-06-02 07:32:01 51°13.598 2°56.108 127.4 -999 196 -999
2005-06-02 07:32:06 51°13.598 2°56.108 127.7 -999 225 -999
2005-06-02 07:32:11 51°13.598 2°56.108 127.7 -999 25 -999
2005-06-02 07:32:16 51°13.598 2°56.108 127.7 -999 213 -999
2005-06-02 07:32:21 51°13.598 2°56.108 127.7 -999 186 -999
2005-06-02 07:32:25 51°13.598 2°56.107 127.7 -999 170 -999
2005-06-02 07:32:30 51°13.598 2°56.107 127.6 -999 9 -999
2005-06-02 07:32:36 51°13.598 2°56.107 127.6 -999 342 -999
2005-06-02 07:32:41 51°13.598 2°56.107 127.6 -999 218 -999
2005-06-02 07:32:45 51°13.598 2°56.107 127.6 -999 159 -999
2005-06-02 07:32:51 51°13.598 2°56.107 127.7 -999 104 -999
2005-06-02 07:32:56 51°13.598 2°56.107 127.7 -999 187 -999
2005-06-02 07:33:01 51°13.598 2°56.107 127.7 -999 195 -999
2005-06-02 07:33:05 51°13.598 2°56.107 127.6 -999 236 -999
2005-06-02 07:33:10 51°13.598 2°56.107 127.6 -999 269 -999
2005-06-02 07:33:16 51°13.598 2°56.107 127.7 -999 204 -999
2005-06-02 07:33:21 51°13.598 2°56.107 127.7 -999 228 -999
2005-06-02 07:33:25 51°13.598 2°56.107 127.7 -999 145 -999
2005-06-02 07:33:30 51°13.598 2°56.107 127.7 -999 175 -999
2005-06-02 07:33:35 51°13.598 2°56.108 127.7 -999 204 -999
2005-06-02 07:33:41 51°13.598 2°56.108 127.7 -999 355 -999
2005-06-02 07:33:45 51°13.598 2°56.108 127.7 -999 354 -999
2005-06-02 07:33:51 51°13.598 2°56.108 127.6 0.1 356 -999
2005-06-02 07:33:55 51°13.598 2°56.108 127.6 -999 172 -999
2005-06-02 07:34:00 51°13.598 2°56.108 127.6 -999 244 -999
2005-06-02 07:34:05 51°13.598 2°56.108 127.6 -999 26 -999
2005-06-02 07:34:11 51°13.598 2°56.108 127.6 -999 195 -999
2005-06-02 07:34:15 51°13.598 2°56.108 127.6 -999 353 -999
2005-06-02 07:34:20 51°13.598 2°56.108 127.4 -999 115 -999
2005-06-02 07:34:25 51°13.598 2°56.108 127.2 -999 143 -999
2005-06-02 07:34:31 51°13.598 2°56.108 127.1 -999 174 -999
2005-06-02 07:34:35 51°13.598 2°56.108 127.1 -999 236 -999
2005-06-02 07:34:41 51°13.599 2°56.108 127.1 0.1 350 -999
2005-06-02 07:34:45 51°13.598 2°56.108 127.1 0.1 343 -999
2005-06-02 07:34:50 51°13.598 2°56.108 127.1 -999 180 -999
2005-06-02 07:34:56 51°13.598 2°56.108 127.1 -999 182 -999
2005-06-02 07:35:01 51°13.599 2°56.108 127.1 -999 224 -999
2005-06-02 07:35:05 51°13.599 2°56.108 127 -999 299 -999
2005-06-02 07:35:10 51°13.599 2°56.108 126.9 -999 22 -999
2005-06-02 07:35:15 51°13.598 2°56.107 126.9 -999 191 -999
2005-06-02 07:35:20 51°13.599 2°56.107 126.9 -999 160 -999
2005-06-02 07:35:25 51°13.598 2°56.107 127 -999 172 -999
2005-06-02 07:35:30 51°13.598 2°56.107 127 -999 185 -999
2005-06-02 07:35:35 51°13.598 2°56.107 127.4 0.1 186 -999
2005-06-02 07:35:40 51°13.598 2°56.107 127.5 -999 257 -999
2005-06-02 07:35:45 51°13.598 2°56.107 127.7 -999 296 -999
2005-06-02 07:35:50 51°13.598 2°56.107 127.7 -999 119 -999
2005-06-02 07:35:55 51°13.598 2°56.107 127.7 -999 160 -999
2005-06-02 07:36:00 51°13.598 2°56.107 127.5 -999 330 -999
2005-06-02 07:36:05 51°13.598 2°56.107 127.4 -999 309 -999
2005-06-02 07:36:10 51°13.598 2°56.107 127.3 0.1 184 -999
2005-06-02 07:36:15 51°13.598 2°56.107 127.3 -999 185 -999
2005-06-02 07:36:20 51°13.598 2°56.107 127.3 -999 343 -999
2005-06-02 07:36:25 51°13.598 2°56.107 127.3 -999 196 -999
2005-06-02 07:36:31 51°13.598 2°56.107 127.3 -999 271 -999
2005-06-02 07:36:35 51°13.598 2°56.107 127.3 0.1 10 -999
2005-06-02 07:36:40 51°13.598 2°56.107 127.3 -999 305 -999
2005-06-02 07:36:45 51°13.598 2°56.107 127.3 -999 8 -999
2005-06-02 07:36:51 51°13.598 2°56.107 127.4 -999 160 -999
2005-06-02 07:36:55 51°13.598 2°56.108 127.4 -999 109 -999
2005-06-02 07:37:00 51°13.598 2°56.108 127.5 -999 78 -999
2005-06-02 07:37:05 51°13.598 2°56.107 127.5 -999 19 -999
2005-06-02 07:37:11 51°13.598 2°56.107 127.5 0.1 285 -999
2005-06-02 07:37:16 51°13.598 2°56.107 127.5 -999 274 -999
2005-06-02 07:37:21 51°13.598 2°56.107 127.5 -999 252 -999
2005-06-02 07:37:25 51°13.598 2°56.108 127.5 -999 65 -999
2005-06-02 07:37:31 51°13.598 2°56.108 127.5 -999 26 -999
2005-06-02 07:37:36 51°13.598 2°56.107 127.5 -999 65 -999
2005-06-02 07:37:41 51°13.598 2°56.107 127.5 0.1 199 -999
2005-06-02 07:37:45 51°13.598 2°56.107 127.5 -999 294 -999
2005-06-02 07:37:51 51°13.598 2°56.108 127.4 0.1 1 -999
2005-06-02 07:37:56 51°13.598 2°56.107 127.2 -999 143 -999
2005-06-02 07:38:01 51°13.598 2°56.108 127 0.1 182 -999
2005-06-02 07:38:05 51°13.599 2°56.108 127 -999 193 -999
2005-06-02 07:38:10 51°13.598 2°56.108 126.9 -999 207 -999
2005-06-02 07:38:16 51°13.598 2°56.107 126.9 -999 207 -999
2005-06-02 07:38:21 51°13.598 2°56.107 127 0.1 176 -999
2005-06-02 07:38:25 51°13.598 2°56.108 127.2 -999 164 -999
2005-06-02 07:38:31 51°13.598 2°56.107 127.4 0.1 346 -999
2005-06-02 07:38:36 51°13.598 2°56.108 127.5 -999 10 -999
2005-06-02 07:38:40 51°13.598 2°56.108 127.5 -999 151 -999
2005-06-02 07:38:45 51°13.599 2°56.108 127.5 0.1 356 -999
2005-06-02 07:38:51 51°13.599 2°56.108 127.5 -999 283 -999
2005-06-02 07:38:56 51°13.599 2°56.108 127.5 -999 343 -999
2005-06-02 07:39:00 51°13.599 2°56.108 127.5 -999 354 -999
2005-06-02 07:39:05 51°13.599 2°56.108 127.5 -999 308 -999
2005-06-02 07:39:11 51°13.599 2°56.108 127.5 -999 192 -999
2005-06-02 07:39:16 51°13.599 2°56.108 127.5 -999 201 -999
2005-06-02 07:39:20 51°13.599 2°56.108 127.5 -999 303 -999
2005-06-02 07:39:25 51°13.599 2°56.108 127.5 -999 144 -999
2005-06-02 07:39:30 51°13.599 2°56.108 127.5 -999 284 -999
2005-06-02 07:39:35 51°13.599 2°56.108 127.5 -999 240 -999
2005-06-02 07:39:41 51°13.6 2°56.108 127.5 -999 335 -999
2005-06-02 07:39:45 51°13.6 2°56.109 127.5 -999 335 -999
2005-06-02 07:39:50 51°13.601 2°56.109 127.5 0.1 129 -999
2005-06-02 07:39:56 51°13.6 2°56.109 127.5 -999 126 -999
2005-06-02 07:40:00 51°13.6 2°56.108 127.5 -999 211 8.6
2005-06-02 07:40:04 51°13.599 2°56.107 127.5 -999 211 8.6
2005-06-02 07:40:09 51°13.599 2°56.107 127.4 -999 211 8.6
2005-06-02 07:40:13 51°13.599 2°56.107 127.4 -999 211 8.6
2005-06-02 07:40:19 51°13.599 2°56.107 127.3 -999 235 8.7
2005-06-02 07:40:24 51°13.598 2°56.107 127.2 -999 324 8.6
2005-06-02 07:40:28 51°13.598 2°56.107 127.2 -999 304 8.6
2005-06-02 07:40:34 51°13.598 2°56.107 127.2 0.1 186 8.5
2005-06-02 07:40:39 51°13.598 2°56.107 127.2 0.1 186 8.5
2005-06-02 07:40:44 51°13.598 2°56.107 127.2 -999 210 8.5
2005-06-02 07:40:48 51°13.598 2°56.107 127.2 -999 210 8.6
2005-06-02 07:40:53 51°13.598 2°56.106 127.2 -999 48 8.6
2005-06-02 07:40:59 51°13.597 2°56.106 127.2 -999 48 8.6
2005-06-02 07:41:04 51°13.597 2°56.106 127.2 -999 186 8.6
2005-06-02 07:41:09 51°13.597 2°56.106 127.2 -999 208 8.6
2005-06-02 07:41:14 51°13.597 2°56.106 127.2 -999 9 8.6
2005-06-02 07:41:19 51°13.597 2°56.106 127.2 0.1 1 8.6
2005-06-02 07:41:24 51°13.597 2°56.106 127.1 0.1 355 8.6
2005-06-02 07:41:29 51°13.597 2°56.106 127.1 0.1 179 8.6
2005-06-02 07:41:34 51°13.597 2°56.106 127 0.1 184 8.6
2005-06-02 07:41:39 51°13.597 2°56.106 127 -999 189 8.6
2005-06-02 07:41:44 51°13.597 2°56.106 127 -999 75 8.6
2005-06-02 07:41:49 51°13.597 2°56.106 127 -999 75 8.6
2005-06-02 07:41:54 51°13.597 2°56.106 127 -999 188 8.6
2005-06-02 07:41:59 51°13.597 2°56.106 127 -999 188 8.6
2005-06-02 07:42:04 51°13.597 2°56.106 127 -999 188 8.6
2005-06-02 07:42:09 51°13.597 2°56.106 127 -999 100 8.6
2005-06-02 07:42:14 51°13.597 2°56.106 127 -999 199 8.6
2005-06-02 07:42:20 51°13.597 2°56.106 127 -999 186 8.5
2005-06-02 07:42:24 51°13.597 2°56.106 127 -999 11 8.6
2005-06-02 07:42:29 51°13.597 2°56.106 127 -999 236 8.6
2005-06-02 07:42:33 51°13.597 2°56.106 127 -999 236 8.6
2005-06-02 07:42:39 51°13.597 2°56.106 127 -999 197 8.6
2005-06-02 07:42:44 51°13.597 2°56.106 127 -999 96 8.7
2005-06-02 07:42:49 51°13.597 2°56.106 126.9 -999 3 8.7
2005-06-02 07:42:54 51°13.597 2°56.106 126.6 -999 3 8.6
2005-06-02 07:42:59 51°13.596 2°56.106 126.6 0.1 353 8.6
2005-06-02 07:43:04 51°13.596 2°56.106 126.6 0.1 16 8.6
2005-06-02 07:43:09 51°13.596 2°56.106 126.6 -999 162 8.6
2005-06-02 07:43:13 51°13.596 2°56.106 126.5 -999 175 8.6
2005-06-02 07:43:19 51°13.596 2°56.106 126.4 -999 358 8.6
2005-06-02 07:43:24 51°13.596 2°56.106 126.4 -999 187 8.6
2005-06-02 07:43:29 51°13.596 2°56.106 126.6 -999 71 8.6
2005-06-02 07:43:33 51°13.596 2°56.106 126.8 -999 119 8.6
2005-06-02 07:43:39 51°13.596 2°56.106 126.8 -999 119 8.6
2005-06-02 07:43:44 51°13.596 2°56.106 126.9 0.1 356 8.7
2005-06-02 07:43:49 51°13.596 2°56.106 126.9 0.1 4 8.7
2005-06-02 07:43:54 51°13.596 2°56.106 127 0.1 7 8.7
2005-06-02 07:43:59 51°13.596 2°56.106 127 0.1 7 8.6
2005-06-02 07:44:04 51°13.596 2°56.106 127 -999 8 8.6
2005-06-02 07:44:08 51°13.596 2°56.106 127 -999 280 8.6
2005-06-02 07:44:14 51°13.596 2°56.106 127 -999 162 8.5
2005-06-02 07:44:19 51°13.597 2°56.106 127 -999 39 8.6
2005-06-02 07:44:24 51°13.597 2°56.106 127 -999 19 8.6
2005-06-02 07:44:29 51°13.597 2°56.106 126.9 -999 337 8.6
2005-06-02 07:44:34 51°13.597 2°56.106 126.7 -999 171 8.6
2005-06-02 07:44:39 51°13.597 2°56.106 126.6 -999 45 8.6
2005-06-02 07:44:44 51°13.597 2°56.106 126.6 -999 167 8.6
2005-06-02 07:44:49 51°13.597 2°56.106 126.6 -999 100 8.6
2005-06-02 07:44:54 51°13.597 2°56.106 126.6 -999 338 8.6
2005-06-02 07:44:59 51°13.597 2°56.106 126.6 -999 354 8.7
2005-06-02 07:45:04 51°13.597 2°56.107 126.6 -999 2 8.6
2005-06-02 07:45:09 51°13.597 2°56.107 126.6 -999 327 8.6
2005-06-02 07:45:13 51°13.597 2°56.107 126.7 -999 358 8.6
2005-06-02 07:45:19 51°13.597 2°56.106 126.7 -999 23 8.7
2005-06-02 07:45:24 51°13.597 2°56.106 126.7 -999 23 8.6
2005-06-02 07:45:29 51°13.597 2°56.106 126.8 0.1 351 8.6
2005-06-02 07:45:34 51°13.597 2°56.106 126.8 0.1 351 8.6
2005-06-02 07:45:39 51°13.597 2°56.107 127 -999 188 8.6
2005-06-02 07:45:44 51°13.597 2°56.107 127.1 -999 294 8.6
2005-06-02 07:45:49 51°13.597 2°56.107 127.3 0.1 10 8.6
2005-06-02 07:45:53 51°13.597 2°56.107 127.3 0.1 -999 8.6
2005-06-02 07:45:59 51°13.598 2°56.107 127.3 0.1 -999 8.7
2005-06-02 07:46:04 51°13.598 2°56.108 127.3 -999 150 8.6
2005-06-02 07:46:09 51°13.598 2°56.108 127.2 -999 10 8.7
2005-06-02 07:46:14 51°13.597 2°56.107 127.1 -999 10 8.6
2005-06-02 07:46:19 51°13.598 2°56.107 127.1 0.1 196 8.7
2005-06-02 07:46:24 51°13.598 2°56.107 127 0.1 339 8.6
2005-06-02 07:46:29 51°13.598 2°56.107 127 -999 322 8.7
2005-06-02 07:46:34 51°13.598 2°56.107 127 -999 314 8.6
2005-06-02 07:46:39 51°13.598 2°56.107 126.9 -999 314 8.8
2005-06-02 07:46:44 51°13.598 2°56.107 126.7 -999 178 8.7
2005-06-02 07:46:49 51°13.598 2°56.107 126.6 -999 331 8.6
2005-06-02 07:46:53 51°13.598 2°56.108 126.4 -999 353 8.6
2005-06-02 07:46:59 51°13.598 2°56.108 126.4 -999 302 8.6
2005-06-02 07:47:04 51°13.598 2°56.108 126.3 -999 302 8.7
2005-06-02 07:47:09 51°13.598 2°56.108 126.3 -999 341 8.6
2005-06-02 07:47:14 51°13.598 2°56.108 126.3 -999 349 8.6
2005-06-02 07:47:19 51°13.598 2°56.108 126.4 -999 349 8.7
2005-06-02 07:47:24 51°13.598 2°56.109 126.6 -999 250 8.6
2005-06-02 07:47:28 51°13.598 2°56.109 126.8 0.1 167 8.6
2005-06-02 07:47:35 51°13.598 2°56.108 126.9 0.1 168 -999
2005-06-02 07:47:40 51°13.598 2°56.108 127 0.1 168 8.7
2005-06-02 07:47:44 51°13.598 2°56.108 127 0.1 168 8.6
2005-06-02 07:47:49 51°13.598 2°56.108 127 -999 332 8.6
2005-06-02 07:47:54 51°13.598 2°56.108 127 -999 261 8.6
2005-06-02 07:47:59 51°13.598 2°56.108 127 0.1 149 8.6
2005-06-02 07:48:04 51°13.598 2°56.108 127 -999 148 8.6
2005-06-02 07:48:09 51°13.599 2°56.108 127 -999 76 8.6
2005-06-02 07:48:14 51°13.599 2°56.108 127 -999 79 8.7
2005-06-02 07:48:19 51°13.599 2°56.108 127 -999 9 8.7
2005-06-02 07:48:24 51°13.599 2°56.109 127 -999 159 8.7
2005-06-02 07:48:29 51°13.599 2°56.109 127.3 -999 295 8.7
2005-06-02 07:48:34 51°13.599 2°56.109 127.4 -999 295 8.7
2005-06-02 07:48:39 51°13.599 2°56.109 127.4 -999 92 8.7
2005-06-02 07:48:44 51°13.599 2°56.109 127.4 -999 92 8.7
2005-06-02 07:48:49 51°13.599 2°56.109 127.4 -999 206 8.7
2005-06-02 07:48:54 51°13.599 2°56.109 127.4 -999 206 8.7
2005-06-02 07:48:59 51°13.599 2°56.109 127.4 -999 206 8.7
2005-06-02 07:49:04 51°13.599 2°56.109 127.4 -999 153 8.7
2005-06-02 07:49:09 51°13.599 2°56.109 127.4 -999 256 8.7
2005-06-02 07:49:14 51°13.599 2°56.109 127.4 -999 256 8.7
2005-06-02 07:49:20 51°13.599 2°56.109 127.4 -999 256 8.7
2005-06-02 07:49:24 51°13.598 2°56.109 127.4 -999 170 8.7
2005-06-02 07:49:29 51°13.598 2°56.109 127.4 0.1 140 8.7
2005-06-02 07:49:34 51°13.599 2°56.109 127.3 0.1 145 8.7
2005-06-02 07:49:39 51°13.598 2°56.109 127.3 0.1 145 8.7
2005-06-02 07:49:44 51°13.599 2°56.109 127.2 -999 197 8.7
2005-06-02 07:49:49 51°13.599 2°56.109 127.1 -999 197 8.7
2005-06-02 07:49:54 51°13.598 2°56.109 127 0.1 135 8.7
2005-06-02 07:49:59 51°13.599 2°56.109 127 -999 131 8.7
2005-06-02 07:50:04 51°13.599 2°56.109 126.8 -999 153 8.7
2005-06-02 07:50:09 51°13.599 2°56.109 126.8 -999 184 8.7
2005-06-02 07:50:14 51°13.599 2°56.109 126.8 -999 335 8.7
2005-06-02 07:50:19 51°13.599 2°56.109 126.8 -999 345 8.7
2005-06-02 07:50:24 51°13.598 2°56.109 126.8 -999 13 8.7
2005-06-02 07:50:29 51°13.598 2°56.109 126.8 -999 93 8.7
2005-06-02 07:50:34 51°13.598 2°56.109 126.8 -999 25 8.7
2005-06-02 07:50:39 51°13.598 2°56.109 126.8 0.1 142 8.7
2005-06-02 07:50:44 51°13.598 2°56.109 126.8 0.1 143 8.7
2005-06-02 07:50:49 51°13.598 2°56.109 126.8 -999 170 8.7
2005-06-02 07:50:54 51°13.598 2°56.109 126.8 -999 185 8.7
2005-06-02 07:50:59 51°13.598 2°56.109 126.8 0.1 167 8.7
2005-06-02 07:51:04 51°13.598 2°56.109 126.9 0.1 168 8.8
2005-06-02 07:51:09 51°13.598 2°56.109 127 -999 151 8.7
2005-06-02 07:51:13 51°13.598 2°56.109 127.3 -999 139 8.7
2005-06-02 07:51:19 51°13.599 2°56.109 127.4 0.1 333 8.7
2005-06-02 07:51:24 51°13.598 2°56.109 127.4 -999 317 8.7
2005-06-02 07:51:29 51°13.599 2°56.109 127.4 -999 293 8.8
2005-06-02 07:51:33 51°13.599 2°56.109 127.4 -999 323 8.8
2005-06-02 07:51:39 51°13.598 2°56.109 127.3 -999 175 8.8
2005-06-02 07:51:44 51°13.599 2°56.109 127.3 0.1 180 8.8
2005-06-02 07:51:48 51°13.599 2°56.109 127.3 -999 328 8.8
2005-06-02 07:51:54 51°13.599 2°56.109 127.3 -999 328 8.8
2005-06-02 07:51:59 51°13.599 2°56.108 127.3 -999 181 8.8
2005-06-02 07:52:04 51°13.599 2°56.108 127.3 -999 181 8.8
2005-06-02 07:52:09 51°13.599 2°56.108 127.3 -999 114 8.8
2005-06-02 07:52:14 51°13.599 2°56.108 127.3 -999 114 8.8
2005-06-02 07:52:19 51°13.599 2°56.108 127.3 -999 114 8.7
2005-06-02 07:52:24 51°13.599 2°56.108 127.3 -999 114 8.8
2005-06-02 07:52:29 51°13.599 2°56.108 127.3 0.1 340 8.8
2005-06-02 07:52:34 51°13.599 2°56.108 127.3 -999 319 8.8
2005-06-02 07:52:39 51°13.599 2°56.108 127.2 -999 300 8.8
2005-06-02 07:52:44 51°13.599 2°56.108 127.1 0.1 300 8.8
2005-06-02 07:52:49 51°13.599 2°56.108 127.1 -999 46 8.8
2005-06-02 07:52:54 51°13.599 2°56.108 127.1 -999 355 8.8
2005-06-02 07:53:00 51°13.599 2°56.108 127.1 -999 227 8.8
2005-06-02 07:53:04 51°13.599 2°56.108 127.1 -999 338 8.8
2005-06-02 07:53:09 51°13.599 2°56.108 127.1 -999 294 8.7
2005-06-02 07:53:14 51°13.599 2°56.109 127.1 -999 294 8.8
2005-06-02 07:53:19 51°13.599 2°56.109 127.1 -999 294 8.8
2005-06-02 07:53:24 51°13.599 2°56.109 127.1 -999 58 8.8
2005-06-02 07:53:29 51°13.599 2°56.109 127.1 -999 165 8.8
2005-06-02 07:53:34 51°13.599 2°56.109 127.1 0.1 351 8.8
2005-06-02 07:53:39 51°13.599 2°56.109 127.1 -999 332 8.8
2005-06-02 07:53:44 51°13.599 2°56.109 127.1 -999 148 8.9
2005-06-02 07:53:49 51°13.599 2°56.109 127.1 -999 148 8.8
2005-06-02 07:53:53 51°13.599 2°56.109 127.1 -999 151 8.8
2005-06-02 07:53:59 51°13.599 2°56.109 127.1 -999 151 8.8
2005-06-02 07:54:04 51°13.599 2°56.108 127.1 -999 2 8.8
2005-06-02 07:54:08 51°13.599 2°56.108 127.1 -999 329 8.8
2005-06-02 07:54:14 51°13.599 2°56.108 127.1 -999 329 8.8
2005-06-02 07:54:19 51°13.599 2°56.109 127.1 -999 54 8.8
2005-06-02 07:54:24 51°13.599 2°56.109 127.1 -999 5 8.9
2005-06-02 07:54:29 51°13.598 2°56.109 127.1 -999 5 8.8
2005-06-02 07:54:33 51°13.599 2°56.109 127.1 -999 5 8.8
2005-06-02 07:54:39 51°13.599 2°56.109 127.1 -999 354 8.8
2005-06-02 07:54:44 51°13.599 2°56.109 127.3 -999 354 8.8
2005-06-02 07:54:49 51°13.599 2°56.109 127.3 0.1 345 8.8
2005-06-02 07:54:54 51°13.599 2°56.109 127.4 0.1 347 8.8
2005-06-02 07:54:59 51°13.599 2°56.109 127.4 0.1 346 8.7
2005-06-02 07:55:04 51°13.599 2°56.11 127.4 -999 286 8.8
2005-06-02 07:55:09 51°13.599 2°56.11 127.4 -999 13 8.8
2005-06-02 07:55:14 51°13.599 2°56.11 127.4 0.1 327 8.8
2005-06-02 07:55:19 51°13.599 2°56.11 127.4 -999 30 8.8
2005-06-02 07:55:24 51°13.599 2°56.11 127.4 -999 30 8.7
2005-06-02 07:55:28 51°13.599 2°56.11 127.4 -999 174 8.7
2005-06-02 07:55:33 51°13.599 2°56.11 127.4 -999 186 8.8
2005-06-02 07:55:40 51°13.598 2°56.11 127.4 -999 223 8.8
2005-06-02 07:55:44 51°13.598 2°56.11 127.4 -999 160 8.8
2005-06-02 07:55:49 51°13.598 2°56.11 127.4 -999 154 8.7
2005-06-02 07:55:54 51°13.598 2°56.11 127.4 -999 131 8.8
2005-06-02 07:56:00 51°13.599 2°56.11 127.4 -999 17 8.7
2005-06-02 07:56:04 51°13.599 2°56.11 127.4 0.1 356 8.7
2005-06-02 07:56:09 51°13.598 2°56.11 127.4 -999 356 8.7
2005-06-02 07:56:14 51°13.598 2°56.11 127.4 -999 356 8.7
2005-06-02 07:56:19 51°13.598 2°56.11 127.4 -999 118 8.7
2005-06-02 07:56:24 51°13.599 2°56.11 127.4 -999 359 8.8
2005-06-02 07:56:29 51°13.599 2°56.11 127.3 -999 359 8.7
2005-06-02 07:56:33 51°13.598 2°56.11 127.3 -999 330 8.7
2005-06-02 07:56:39 51°13.598 2°56.11 127.3 -999 159 8.7
2005-06-02 07:56:44 51°13.598 2°56.11 127.3 -999 136 8.7
2005-06-02 07:56:49 51°13.599 2°56.11 127.3 -999 136 8.7
2005-06-02 07:56:54 51°13.599 2°56.11 127.3 -999 327 8.8
2005-06-02 07:56:59 51°13.599 2°56.11 127.2 -999 350 8.7
2005-06-02 07:57:04 51°13.599 2°56.11 127.2 0.1 357 8.8
2005-06-02 07:57:09 51°13.598 2°56.109 127.1 0.1 3 8.7
2005-06-02 07:57:13 51°13.598 2°56.11 127 0.1 3 8.7
2005-06-02 07:57:19 51°13.598 2°56.109 127 0.1 3 8.8
2005-06-02 07:57:24 51°13.598 2°56.109 127 0.1 143 8.7
2005-06-02 07:57:29 51°13.598 2°56.109 127 -999 43 8.7
2005-06-02 07:57:34 51°13.598 2°56.109 127 0.1 195 8.8
2005-06-02 07:57:39 51°13.598 2°56.108 127 0.1 195 8.9
2005-06-02 07:57:44 51°13.598 2°56.108 127 -999 285 8.9
2005-06-02 07:57:49 51°13.598 2°56.108 127 -999 213 8.7
2005-06-02 07:57:54 51°13.598 2°56.108 127 0.1 36 8.7
2005-06-02 07:57:59 51°13.598 2°56.108 127 0.1 20 8.7
2005-06-02 07:58:04 51°13.598 2°56.108 127 0.1 20 8.8
2005-06-02 07:58:09 51°13.598 2°56.108 127 0.1 8 8.8
2005-06-02 07:58:13 51°13.598 2°56.108 127 0.1 8 8.8
2005-06-02 07:58:19 51°13.598 2°56.108 127 -999 281 8.8
2005-06-02 07:58:24 51°13.598 2°56.108 127 -999 145 8.7
2005-06-02 07:58:28 51°13.598 2°56.108 127 -999 322 8.7
2005-06-02 07:58:34 51°13.598 2°56.108 127 -999 304 8.8
2005-06-02 07:58:39 51°13.598 2°56.108 127 -999 297 8.8
2005-06-02 07:58:44 51°13.598 2°56.108 127 -999 297 8.7
2005-06-02 07:58:49 51°13.598 2°56.107 127.1 -999 204 8.7
2005-06-02 07:58:54 51°13.598 2°56.107 127.2 -999 248 8.8
2005-06-02 07:58:59 51°13.597 2°56.107 127.3 -999 134 8.8
2005-06-02 07:59:04 51°13.597 2°56.107 127.3 -999 160 8.8
2005-06-02 07:59:09 51°13.597 2°56.107 127.3 -999 163 8.7
2005-06-02 07:59:14 51°13.597 2°56.107 127.3 0.1 188 8.8
2005-06-02 07:59:19 51°13.597 2°56.107 127.3 -999 177 8.8
2005-06-02 07:59:24 51°13.598 2°56.107 127.3 -999 177 8.8
2005-06-02 07:59:29 51°13.598 2°56.108 127.2 0.1 338 8.8
2005-06-02 07:59:33 51°13.598 2°56.108 127.1 -999 325 8.9
2005-06-02 07:59:39 51°13.598 2°56.108 127 -999 325 8.8
2005-06-02 07:59:44 51°13.598 2°56.108 127 -999 137 8.7
2005-06-02 07:59:49 51°13.598 2°56.108 127 -999 133 8.7
2005-06-02 07:59:53 51°13.598 2°56.108 127 -999 133 8.7
2005-06-02 07:59:59 51°13.598 2°56.108 127 -999 133 8.7
2005-06-02 08:00:04 51°13.598 2°56.108 127 -999 153 8.7
2005-06-02 08:00:09 51°13.598 2°56.108 127 -999 125 8.7
2005-06-02 08:00:15 51°13.598 2°56.108 127 -999 9 8.8
2005-06-02 08:00:20 51°13.598 2°56.108 127 -999 264 8.7
2005-06-02 08:00:24 51°13.598 2°56.108 127 -999 265 8.7
2005-06-02 08:00:29 51°13.598 2°56.108 127 -999 100 8.7
2005-06-02 08:00:33 51°13.598 2°56.109 127 -999 40 8.7
2005-06-02 08:00:40 51°13.598 2°56.108 127 -999 40 8.7
2005-06-02 08:00:44 51°13.598 2°56.108 127 -999 5 8.7
2005-06-02 08:00:49 51°13.598 2°56.108 127 -999 63 8.7
2005-06-02 08:00:54 51°13.598 2°56.108 127 -999 32 8.7
2005-06-02 08:01:00 51°13.598 2°56.108 126.9 -999 32 8.7
2005-06-02 08:01:04 51°13.598 2°56.109 126.9 -999 193 8.7
2005-06-02 08:01:09 51°13.598 2°56.109 126.9 -999 190 8.7
2005-06-02 08:01:13 51°13.598 2°56.109 126.9 -999 64 8.8
2005-06-02 08:01:19 51°13.598 2°56.109 126.8 -999 64 8.7
2005-06-02 08:01:24 51°13.598 2°56.109 126.8 -999 64 8.7
2005-06-02 08:01:29 51°13.598 2°56.109 126.8 0.1 -999 8.7
2005-06-02 08:01:34 51°13.598 2°56.109 126.8 0.1 344 8.7
2005-06-02 08:01:39 51°13.598 2°56.109 126.8 -999 198 8.8
2005-06-02 08:01:44 51°13.598 2°56.11 126.8 0.1 335 8.8
2005-06-02 08:01:49 51°13.598 2°56.109 126.8 0.1 337 8.7
2005-06-02 08:01:53 51°13.597 2°56.109 126.9 0.1 337 8.8
2005-06-02 08:01:59 51°13.597 2°56.108 127 -999 164 8.8
2005-06-02 08:02:04 51°13.597 2°56.108 127 -999 83 8.8
2005-06-02 08:02:09 51°13.597 2°56.108 127 -999 83 8.8
2005-06-02 08:02:13 51°13.597 2°56.108 127 -999 53 8.7
2005-06-02 08:02:20 51°13.597 2°56.108 127.1 -999 118 8.7
2005-06-02 08:02:24 51°13.597 2°56.108 127.1 -999 229 8.7
2005-06-02 08:02:29 51°13.597 2°56.108 127.1 0.1 199 8.7
2005-06-02 08:02:33 51°13.597 2°56.108 127.1 0.1 181 8.7
2005-06-02 08:02:39 51°13.597 2°56.108 127.1 0.1 181 8.7
2005-06-02 08:02:44 51°13.597 2°56.108 127.1 0.1 181 8.7
2005-06-02 08:02:49 51°13.597 2°56.108 127.1 0.1 181 8.7
2005-06-02 08:02:53 51°13.597 2°56.108 127.1 -999 222 8.7
2005-06-02 08:02:59 51°13.597 2°56.108 127.1 -999 8 8.8
2005-06-02 08:03:04 51°13.597 2°56.108 127.1 0.1 1 8.7
2005-06-02 08:03:09 51°13.597 2°56.108 127 -999 167 8.7
2005-06-02 08:03:14 51°13.598 2°56.108 127 -999 264 8.7
2005-06-02 08:03:19 51°13.597 2°56.108 127 0.1 332 8.7
2005-06-02 08:03:24 51°13.597 2°56.108 127 -999 215 8.9
2005-06-02 08:03:29 51°13.597 2°56.108 127 -999 182 8.7
2005-06-02 08:03:34 51°13.597 2°56.108 127 -999 182 9
2005-06-02 08:03:39 51°13.598 2°56.108 127 -999 4 8.7
2005-06-02 08:03:44 51°13.597 2°56.108 127 -999 55 -999
2005-06-02 08:03:49 51°13.597 2°56.108 127 -999 147 -999
2005-06-02 08:03:54 51°13.598 2°56.108 127 -999 147 8.7
2005-06-02 08:03:59 51°13.598 2°56.108 127 -999 147 8.7
2005-06-02 08:04:04 51°13.598 2°56.108 127 -999 147 8.7